createdAt,value
2023-04-10T00:01:15.467Z,8.3
2023-04-10T00:04:15.609Z,8.3
2023-04-10T00:07:15.464Z,8.3
2023-04-10T00:10:15.488Z,8.3
2023-04-10T00:13:15.464Z,8.2
2023-04-10T00:16:15.487Z,8.2
2023-04-10T00:19:15.453Z,8.2
2023-04-10T00:22:15.466Z,8.2
2023-04-10T00:25:15.457Z,8.2
2023-04-10T00:28:15.451Z,8.2
2023-04-10T00:31:15.460Z,8.1
2023-04-10T00:34:15.457Z,8.1
2023-04-10T00:37:15.451Z,8.1
2023-04-10T00:40:15.470Z,8
2023-04-10T00:46:15.517Z,7.9
2023-04-10T00:49:15.441Z,7.9
2023-04-10T00:52:15.462Z,7.9
2023-04-10T00:55:15.442Z,7.8
2023-04-10T01:01:15.463Z,7.8
2023-04-10T01:04:15.531Z,7.8
2023-04-10T01:07:15.447Z,7.7
2023-04-10T01:10:15.449Z,7.7
2023-04-10T01:13:15.442Z,7.6
2023-04-10T01:16:15.503Z,7.6
2023-04-10T01:19:15.444Z,7.6
2023-04-10T01:22:15.441Z,7.6
2023-04-10T01:25:15.436Z,7.5
2023-04-10T01:28:15.434Z,7.5
2023-04-10T01:31:15.479Z,7.5
2023-04-10T01:34:15.456Z,7.5
2023-04-10T01:37:15.433Z,7.5
2023-04-10T01:40:15.430Z,7.4
2023-04-10T01:43:15.426Z,7.4
2023-04-10T01:46:15.440Z,7.4
2023-04-10T01:49:15.434Z,7.3
2023-04-10T01:52:15.432Z,7.3
2023-04-10T01:55:15.441Z,7.3
2023-04-10T01:58:15.430Z,7.2
2023-04-10T02:01:22.665Z,7.2
2023-04-10T02:04:15.467Z,7.2
2023-04-10T02:07:15.440Z,7.3
2023-04-10T02:10:15.422Z,7.3
2023-04-10T02:13:15.427Z,7.4
2023-04-10T02:16:15.457Z,7.4
2023-04-10T02:19:15.432Z,7.4
2023-04-10T02:22:15.431Z,7.4
2023-04-10T02:25:15.475Z,7.4
2023-04-10T02:28:15.414Z,7.4
2023-04-10T02:31:15.444Z,7.5
2023-04-10T02:34:15.414Z,7.5
2023-04-10T02:37:15.434Z,7.5
2023-04-10T02:40:15.428Z,7.5
2023-04-10T02:43:15.462Z,7.5
2023-04-10T02:46:15.449Z,7.5
2023-04-10T02:49:15.431Z,7.5
2023-04-10T02:52:15.416Z,7.5
2023-04-10T02:55:15.413Z,7.5
2023-04-10T02:58:15.438Z,7.5
2023-04-10T03:01:15.417Z,7.5
2023-04-10T03:04:15.540Z,7.5
2023-04-10T03:07:15.442Z,7.4
2023-04-10T03:10:15.409Z,7.4
2023-04-10T03:13:15.421Z,7.4
2023-04-10T03:16:15.509Z,7.4
2023-04-10T03:19:15.424Z,7.4
2023-04-10T03:22:15.416Z,7.4
2023-04-10T03:25:15.411Z,7.4
2023-04-10T03:28:15.416Z,7.4
2023-04-10T03:31:15.456Z,7.3
2023-04-10T03:34:15.405Z,7.3
2023-04-10T03:37:15.415Z,7.3
2023-04-10T03:40:15.409Z,7.3
2023-04-10T03:43:15.416Z,7.3
2023-04-10T03:46:15.431Z,7.3
2023-04-10T03:49:15.394Z,7.3
2023-04-10T03:52:15.402Z,7.3
2023-04-10T03:55:15.405Z,7.3
2023-04-10T03:58:15.416Z,7.3
2023-04-10T04:01:15.392Z,7.2
2023-04-10T04:04:15.514Z,7.2
2023-04-10T04:10:15.389Z,7.2
2023-04-10T04:13:15.387Z,7.2
2023-04-10T04:16:15.441Z,7.2
2023-04-10T04:19:15.870Z,7.2
2023-04-10T04:22:15.392Z,7.1
2023-04-10T04:25:15.383Z,7.1
2023-04-10T04:28:15.387Z,7.1
2023-04-10T04:31:15.372Z,7.1
2023-04-10T04:34:15.373Z,7.1
2023-04-10T04:37:15.372Z,7.1
2023-04-10T04:40:15.408Z,7
2023-04-10T04:43:15.370Z,7
2023-04-10T04:49:15.364Z,7
2023-04-10T04:52:15.374Z,6.9
2023-04-10T04:55:15.360Z,6.9
2023-04-10T04:58:15.361Z,6.9
2023-04-10T05:01:15.379Z,6.9
2023-04-10T05:04:15.497Z,6.9
2023-04-10T05:07:15.365Z,6.9
2023-04-10T05:10:15.364Z,6.9
2023-04-10T05:13:15.356Z,6.9
2023-04-10T05:16:15.447Z,6.9
2023-04-10T05:19:15.352Z,6.9
2023-04-10T05:22:16.898Z,6.9
2023-04-10T05:25:15.560Z,6.9
2023-04-10T05:28:15.351Z,6.9
2023-04-10T05:31:15.356Z,6.9
2023-04-10T05:34:15.345Z,6.9
2023-04-10T05:37:15.353Z,6.9
2023-04-10T05:40:15.349Z,6.9
2023-04-10T05:43:15.340Z,6.9
2023-04-10T05:46:15.409Z,7
2023-04-10T05:49:15.346Z,7
2023-04-10T05:52:15.335Z,7
2023-04-10T05:55:15.340Z,7
2023-04-10T05:58:15.330Z,7
2023-04-10T06:01:15.340Z,7
2023-04-10T06:04:15.461Z,7
2023-04-10T06:07:15.441Z,7
2023-04-10T06:10:15.803Z,7
2023-04-10T06:13:15.332Z,7.1
2023-04-10T06:16:15.419Z,7.1
2023-04-10T06:25:15.325Z,7.1
2023-04-10T06:28:15.331Z,7.2
2023-04-10T06:31:15.406Z,7.2
2023-04-10T06:34:15.336Z,7.2
2023-04-10T06:37:15.364Z,7.2
2023-04-10T06:40:15.321Z,7.2
2023-04-10T06:43:15.317Z,7.3
2023-04-10T06:46:15.331Z,7.3
2023-04-10T06:49:15.322Z,7.3
2023-04-10T06:52:15.337Z,7.3
2023-04-10T06:55:15.317Z,7.3
2023-04-10T06:58:15.319Z,7.4
2023-04-10T07:01:15.345Z,7.4
2023-04-10T07:04:15.356Z,7.4
2023-04-10T07:07:15.335Z,7.5
2023-04-10T07:10:15.318Z,7.5
2023-04-10T07:13:15.316Z,7.6
2023-04-10T07:16:15.338Z,7.6
2023-04-10T07:19:15.312Z,7.7
2023-04-10T07:22:15.326Z,7.7
2023-04-10T07:25:15.306Z,7.8
2023-04-10T07:28:15.345Z,7.9
2023-04-10T07:31:15.344Z,7.9
2023-04-10T07:34:15.298Z,8
2023-04-10T07:37:15.299Z,8
2023-04-10T07:40:15.300Z,8
2023-04-10T07:43:15.297Z,8.1
2023-04-10T07:46:15.424Z,8.1
2023-04-10T07:49:15.328Z,8.2
2023-04-10T07:52:15.314Z,8.3
2023-04-10T07:55:15.312Z,8.3
2023-04-10T07:58:15.308Z,8.4
2023-04-10T08:01:15.326Z,8.5
2023-04-10T08:04:15.422Z,8.6
2023-04-10T08:07:15.309Z,8.6
2023-04-10T08:10:15.296Z,8.7
2023-04-10T08:13:15.312Z,8.7
2023-04-10T08:16:15.351Z,8.8
2023-04-10T08:19:15.307Z,8.9
2023-04-10T08:22:15.290Z,9
2023-04-10T08:25:15.283Z,9
2023-04-10T08:31:15.319Z,9.2
2023-04-10T08:34:15.284Z,9.3
2023-04-10T08:37:15.293Z,9.4
2023-04-10T08:40:15.286Z,9.5
2023-04-10T08:43:15.292Z,9.6
2023-04-10T08:46:15.369Z,9.7
2023-04-10T08:49:15.287Z,9.8
2023-04-10T08:52:15.291Z,9.9
2023-04-10T08:55:15.382Z,10
2023-04-10T08:58:15.318Z,10.1
2023-04-10T09:01:15.308Z,10.2
2023-04-10T09:04:15.331Z,10.2
2023-04-10T09:07:15.282Z,10.4
2023-04-10T09:10:15.283Z,10.5
2023-04-10T09:13:15.292Z,10.6
2023-04-10T09:16:15.408Z,10.7
2023-04-10T09:19:15.282Z,10.9
2023-04-10T09:22:15.300Z,11
2023-04-10T09:25:15.301Z,11.2
2023-04-10T09:28:15.286Z,11.3
2023-04-10T09:31:15.304Z,11.4
2023-04-10T09:34:15.283Z,11.4
2023-04-10T09:37:15.289Z,11.7
2023-04-10T09:43:15.294Z,11.8
2023-04-10T09:46:15.374Z,11.9
2023-04-10T09:49:15.293Z,12
2023-04-10T09:52:15.285Z,12.1
2023-04-10T09:55:15.308Z,12.2
2023-04-10T09:58:15.295Z,12.2
2023-04-10T10:01:15.307Z,12.3
2023-04-10T10:04:15.294Z,12.4
2023-04-10T10:07:15.309Z,12.5
2023-04-10T10:10:15.312Z,12.6
2023-04-10T10:13:15.278Z,12.6
2023-04-10T10:16:15.285Z,12.7
2023-04-10T10:19:15.279Z,12.7
2023-04-10T10:22:15.288Z,12.8
2023-04-10T10:25:15.274Z,12.9
2023-04-10T10:28:15.282Z,13
2023-04-10T10:31:15.322Z,13
2023-04-10T10:34:15.322Z,13
2023-04-10T10:37:15.292Z,13.1
2023-04-10T10:40:15.382Z,13.1
2023-04-10T10:43:15.270Z,13.3
2023-04-10T10:46:15.314Z,13.4
2023-04-10T10:49:15.282Z,13.4
2023-04-10T10:52:15.273Z,13.5
2023-04-10T10:55:15.299Z,13.5
2023-04-10T10:58:15.282Z,13.7
2023-04-10T11:01:15.293Z,13.7
2023-04-10T11:04:15.361Z,13.8
2023-04-10T11:07:15.289Z,13.9
2023-04-10T11:10:15.366Z,14
2023-04-10T11:13:15.285Z,14.1
2023-04-10T11:16:15.288Z,14.2
2023-04-10T11:19:16.332Z,14.2
2023-04-10T11:22:15.288Z,14.3
2023-04-10T11:25:15.294Z,14.4
2023-04-10T11:28:15.296Z,14.5
2023-04-10T11:31:15.288Z,14.6
2023-04-10T11:34:15.268Z,14.6
2023-04-10T11:37:15.306Z,14.6
2023-04-10T11:40:15.286Z,14.7
2023-04-10T11:43:15.289Z,14.7
2023-04-10T11:46:15.324Z,14.8
2023-04-10T11:49:15.280Z,14.8
2023-04-10T11:52:15.263Z,14.9
2023-04-10T11:55:15.259Z,14.9
2023-04-10T11:58:15.273Z,14.9
2023-04-10T12:01:15.282Z,15
2023-04-10T12:04:15.367Z,15
2023-04-10T12:07:15.252Z,15
2023-04-10T12:10:15.255Z,15.1
2023-04-10T12:13:15.271Z,15.1
2023-04-10T12:16:15.364Z,15.2
2023-04-10T12:19:15.260Z,15.3
2023-04-10T12:22:15.326Z,15.3
2023-04-10T12:25:15.256Z,15.4
2023-04-10T12:28:15.242Z,15.5
2023-04-10T12:31:15.284Z,15.6
2023-04-10T12:34:15.245Z,15.6
2023-04-10T12:37:15.261Z,15.7
2023-04-10T12:40:15.262Z,15.7
2023-04-10T12:43:15.247Z,15.8
2023-04-10T12:46:15.254Z,15.8
2023-04-10T12:49:15.240Z,15.9
2023-04-10T12:52:15.242Z,16
2023-04-10T12:55:15.261Z,16
2023-04-10T12:58:15.245Z,16.1
2023-04-10T13:01:15.276Z,16.1
2023-04-10T13:04:15.292Z,16.2
2023-04-10T13:07:15.244Z,16.2
2023-04-10T13:10:15.239Z,16.3
2023-04-10T13:13:15.243Z,16.3
2023-04-10T13:16:15.249Z,16.3
2023-04-10T13:19:15.238Z,16.4
2023-04-10T13:22:15.242Z,16.4
2023-04-10T13:25:15.257Z,16.5
2023-04-10T13:28:15.222Z,16.6
2023-04-10T13:31:15.248Z,16.6
2023-04-10T13:34:15.217Z,16.7
2023-04-10T13:37:15.237Z,16.7
2023-04-10T13:40:15.242Z,16.7
2023-04-10T13:43:15.222Z,16.7
2023-04-10T13:46:15.357Z,16.7
2023-04-10T13:49:15.213Z,16.7
2023-04-10T13:52:15.211Z,16.7
2023-04-10T13:55:15.241Z,16.7
2023-04-10T13:58:15.234Z,16.7
2023-04-10T14:01:15.234Z,16.7
2023-04-10T14:04:15.204Z,16.7
2023-04-10T14:07:15.205Z,16.7
2023-04-10T14:10:15.211Z,16.7
2023-04-10T14:13:15.205Z,16.7
2023-04-10T14:16:15.217Z,16.8
2023-04-10T14:19:15.221Z,16.8
2023-04-10T14:22:15.223Z,16.8
2023-04-10T14:25:15.202Z,16.8
2023-04-10T14:28:15.200Z,16.8
2023-04-10T14:31:15.193Z,16.9
2023-04-10T14:34:15.196Z,16.9
2023-04-10T14:37:15.613Z,16.9
2023-04-10T14:40:15.207Z,16.8
2023-04-10T14:43:15.185Z,16.8
2023-04-10T14:46:15.193Z,16.8
2023-04-10T14:49:15.230Z,16.9
2023-04-10T14:52:15.208Z,16.8
2023-04-10T14:55:15.206Z,16.8
2023-04-10T14:58:15.187Z,16.8
2023-04-10T15:01:15.241Z,16.8
2023-04-10T15:04:15.300Z,16.8
2023-04-10T15:07:15.211Z,16.8
2023-04-10T15:10:15.206Z,16.7
2023-04-10T15:13:15.191Z,16.7
2023-04-10T15:16:15.214Z,16.7
2023-04-10T15:19:15.191Z,16.6
2023-04-10T15:22:15.203Z,16.6
2023-04-10T15:25:15.194Z,16.6
2023-04-10T15:28:15.196Z,16.6
2023-04-10T15:31:15.223Z,16.6
2023-04-10T15:34:15.184Z,16.6
2023-04-10T15:37:15.192Z,16.6
2023-04-10T15:40:15.185Z,16.5
2023-04-10T15:43:15.194Z,16.5
2023-04-10T15:46:15.215Z,16.5
2023-04-10T15:49:20.446Z,16.4
2023-04-10T15:52:15.192Z,16.4
2023-04-10T15:55:15.199Z,16.4
2023-04-10T15:58:15.183Z,16.5
2023-04-10T16:01:15.185Z,16.5
2023-04-10T16:04:15.266Z,16.5
2023-04-10T16:07:15.200Z,16.4
2023-04-10T16:10:15.194Z,16.4
2023-04-10T16:13:15.192Z,16.4
2023-04-10T16:16:15.248Z,16.4
2023-04-10T16:19:15.231Z,16.3
2023-04-10T16:22:15.214Z,16.2
2023-04-10T16:25:15.192Z,16.2
2023-04-10T16:28:15.198Z,16.2
2023-04-10T16:31:15.206Z,16.2
2023-04-10T16:34:15.202Z,16.1
2023-04-10T16:37:15.210Z,16.1
2023-04-10T16:40:15.207Z,16.1
2023-04-10T16:43:15.192Z,16
2023-04-10T16:46:15.210Z,16
2023-04-10T16:49:15.204Z,16
2023-04-10T16:52:15.182Z,16
2023-04-10T16:55:15.181Z,16
2023-04-10T16:58:15.228Z,16
2023-04-10T17:01:15.221Z,15.9
2023-04-10T17:04:15.242Z,15.9
2023-04-10T17:07:15.185Z,15.9
2023-04-10T17:10:15.209Z,15.9
2023-04-10T17:13:15.180Z,15.9
2023-04-10T17:16:15.204Z,15.8
2023-04-10T17:19:15.186Z,15.8
2023-04-10T17:22:15.194Z,15.8
2023-04-10T17:25:15.184Z,15.7
2023-04-10T17:28:15.210Z,15.7
2023-04-10T17:31:15.254Z,15.6
2023-04-10T17:34:15.166Z,15.6
2023-04-10T17:37:15.166Z,15.6
2023-04-10T17:40:15.184Z,15.5
2023-04-10T17:43:15.184Z,15.4
2023-04-10T17:52:15.188Z,15.2
2023-04-10T17:55:15.179Z,15.2
2023-04-10T17:58:15.170Z,15.1
2023-04-10T18:01:15.200Z,15.1
2023-04-10T18:04:15.182Z,15.1
2023-04-10T18:07:15.173Z,15
2023-04-10T18:10:15.168Z,15
2023-04-10T18:13:15.163Z,14.9
2023-04-10T18:16:15.178Z,14.9
2023-04-10T18:19:15.199Z,14.9
2023-04-10T18:22:15.181Z,14.9
2023-04-10T18:25:15.218Z,14.8
2023-04-10T18:31:15.238Z,14.8
2023-04-10T18:34:15.281Z,14.8
2023-04-10T18:37:15.181Z,14.7
2023-04-10T18:40:16.559Z,14.7
2023-04-10T18:43:15.168Z,14.7
2023-04-10T18:46:15.181Z,14.7
2023-04-10T18:49:15.179Z,14.7
2023-04-10T18:52:15.168Z,14.6
2023-04-10T18:55:15.175Z,14.6
2023-04-10T18:58:15.170Z,14.6
2023-04-10T19:01:15.196Z,14.6
2023-04-10T19:04:15.340Z,14.6
2023-04-10T19:07:15.195Z,14.6
2023-04-10T19:10:15.178Z,14.6
2023-04-10T19:13:15.191Z,14.6
2023-04-10T19:16:15.205Z,14.6
2023-04-10T19:19:15.181Z,14.6
2023-04-10T19:22:15.190Z,14.5
2023-04-10T19:25:15.175Z,14.5
2023-04-10T19:28:15.163Z,14.5
2023-04-10T19:31:15.223Z,14.5
2023-04-10T19:34:15.169Z,14.5
2023-04-10T19:37:15.161Z,14.5
2023-04-10T19:40:15.171Z,14.4
2023-04-10T19:43:15.196Z,14.4
2023-04-10T19:46:15.177Z,14.4
2023-04-10T19:49:15.168Z,14.3
2023-04-10T19:52:15.148Z,14.3
2023-04-10T19:55:16.414Z,14.3
2023-04-10T19:58:30.365Z,14.3
2023-04-10T20:01:15.187Z,14.3
2023-04-10T20:04:15.290Z,14.3
2023-04-10T20:07:15.152Z,14.2
2023-04-10T20:10:15.158Z,14.2
2023-04-10T20:13:15.158Z,14.2
2023-04-10T20:16:15.216Z,14.2
2023-04-10T20:19:15.154Z,14.2
2023-04-10T20:22:15.149Z,14.2
2023-04-10T20:25:15.181Z,14.2
2023-04-10T20:28:15.156Z,14.1
2023-04-10T20:31:15.216Z,14.1
2023-04-10T20:34:15.144Z,14
2023-04-10T20:37:15.154Z,13.9
2023-04-10T20:43:15.158Z,13.8
2023-04-10T20:46:15.284Z,13.8
2023-04-10T20:49:15.134Z,13.7
2023-04-10T20:52:15.134Z,13.7
2023-04-10T20:55:15.153Z,13.7
2023-04-10T20:58:15.176Z,13.7
2023-04-10T21:01:15.188Z,13.6
2023-04-10T21:04:15.176Z,13.6
2023-04-10T21:07:15.151Z,13.6
2023-04-10T21:10:15.149Z,13.7
2023-04-10T21:13:15.148Z,13.6
2023-04-10T21:16:15.170Z,13.6
2023-04-10T21:19:15.144Z,13.6
2023-04-10T21:22:15.137Z,13.6
2023-04-10T21:25:15.169Z,13.6
2023-04-10T21:28:15.132Z,13.6
2023-04-10T21:31:15.131Z,13.6
2023-04-10T21:34:15.139Z,13.6
2023-04-10T21:37:15.142Z,13.6
2023-04-10T21:40:15.133Z,13.6
2023-04-10T21:43:15.120Z,13.6
2023-04-10T21:49:15.131Z,13.7
2023-04-10T21:52:15.138Z,13.7
2023-04-10T21:55:15.135Z,13.7
2023-04-10T21:58:15.151Z,13.7
2023-04-10T22:01:15.155Z,13.7
2023-04-10T22:04:15.219Z,13.7
2023-04-10T22:07:15.117Z,13.6
2023-04-10T22:10:15.127Z,13.6
2023-04-10T22:13:23.649Z,13.6
2023-04-10T22:16:15.110Z,13.6
2023-04-10T22:19:15.132Z,13.6
2023-04-10T22:22:15.115Z,13.6
2023-04-10T22:25:15.174Z,13.6
2023-04-10T22:28:15.136Z,13.6
2023-04-10T22:31:15.175Z,13.6
2023-04-10T22:34:15.118Z,13.6
2023-04-10T22:37:15.114Z,13.5
2023-04-10T22:40:15.119Z,13.5
2023-04-10T22:43:15.107Z,13.5
2023-04-10T22:49:15.115Z,13.3
2023-04-10T22:58:15.120Z,13.2
2023-04-10T23:01:15.113Z,13.1
2023-04-10T23:04:15.121Z,13
2023-04-10T23:10:15.110Z,12.9
2023-04-10T23:13:15.098Z,12.8
2023-04-10T23:16:15.229Z,12.8
2023-04-10T23:19:15.117Z,12.7
2023-04-10T23:22:15.103Z,12.7
2023-04-10T23:25:15.105Z,12.6
2023-04-10T23:28:15.108Z,12.6
2023-04-10T23:34:15.115Z,12.6
2023-04-10T23:37:15.101Z,12.5
2023-04-10T23:40:15.391Z,12.5
2023-04-10T23:43:15.094Z,12.5
2023-04-10T23:46:15.122Z,12.4
2023-04-10T23:49:15.096Z,12.4
2023-04-10T23:52:15.100Z,12.4
2023-04-10T23:55:15.089Z,12.3
2023-04-10T23:58:15.089Z,12.3
